sensor_id;sensor_type;location;lat;lon;timestamp;temperature;humidity
7216;DHT22;3649;48.798;9.798;2023-04-03T00:00:54;9.40;99.90
7216;DHT22;3649;48.798;9.798;2023-04-03T00:03:20;9.40;99.90
7216;DHT22;3649;48.798;9.798;2023-04-03T00:05:50;9.40;99.90
7216;DHT22;3649;48.798;9.798;2023-04-03T00:08:17;9.40;99.90
7216;DHT22;3649;48.798;9.798;2023-04-03T00:10:44;9.30;99.90
7216;DHT22;3649;48.798;9.798;2023-04-03T00:13:11;9.20;99.90
7216;DHT22;3649;48.798;9.798;2023-04-03T00:15:39;9.20;99.90
7216;DHT22;3649;48.798;9.798;2023-04-03T00:18:06;9.20;99.90
7216;DHT22;3649;48.798;9.798;2023-04-03T00:20:34;9.10;99.90
7216;DHT22;3649;48.798;9.798;2023-04-03T00:23:02;9.10;99.90
7216;DHT22;3649;48.798;9.798;2023-04-03T00:25:29;9.20;99.90
7216;DHT22;3649;48.798;9.798;2023-04-03T00:27:56;9.20;99.90
7216;DHT22;3649;48.798;9.798;2023-04-03T00:30:23;9.20;99.90
7216;DHT22;3649;48.798;9.798;2023-04-03T00:32:51;9.20;99.90
7216;DHT22;3649;48.798;9.798;2023-04-03T00:35:19;9.20;99.90
7216;DHT22;3649;48.798;9.798;2023-04-03T00:37:51;9.30;99.90
7216;DHT22;3649;48.798;9.798;2023-04-03T00:40:20;9.30;99.90
7216;DHT22;3649;48.798;9.798;2023-04-03T00:42:48;9.30;99.90
7216;DHT22;3649;48.798;9.798;2023-04-03T00:47:54;9.30;99.90
7216;DHT22;3649;48.798;9.798;2023-04-03T00:50:22;9.30;99.90
7216;DHT22;3649;48.798;9.798;2023-04-03T00:52:49;9.50;99.90
7216;DHT22;3649;48.798;9.798;2023-04-03T00:55:17;9.30;99.90
7216;DHT22;3649;48.798;9.798;2023-04-03T00:57:46;9.30;99.90
7216;DHT22;3649;48.798;9.798;2023-04-03T01:00:16;9.40;99.90
7216;DHT22;3649;48.798;9.798;2023-04-03T01:02:45;9.20;99.90
7216;DHT22;3649;48.798;9.798;2023-04-03T01:05:12;9.20;99.90
7216;DHT22;3649;48.798;9.798;2023-04-03T01:07:41;9.20;99.90
7216;DHT22;3649;48.798;9.798;2023-04-03T01:10:11;9.20;99.90
7216;DHT22;3649;48.798;9.798;2023-04-03T01:12:42;9.90;99.90
7216;DHT22;3649;48.798;9.798;2023-04-03T01:15:24;9.10;99.90
7216;DHT22;3649;48.798;9.798;2023-04-03T01:17:57;9.20;99.90
7216;DHT22;3649;48.798;9.798;2023-04-03T01:28:11;9.10;99.90
7216;DHT22;3649;48.798;9.798;2023-04-03T01:30:48;9.20;99.90
7216;DHT22;3649;48.798;9.798;2023-04-03T01:33:16;9.20;99.90
7216;DHT22;3649;48.798;9.798;2023-04-03T01:35:44;9.20;99.90
7216;DHT22;3649;48.798;9.798;2023-04-03T01:38:11;9.20;99.90
7216;DHT22;3649;48.798;9.798;2023-04-03T01:40:38;9.20;99.90
7216;DHT22;3649;48.798;9.798;2023-04-03T01:43:05;9.20;99.90
7216;DHT22;3649;48.798;9.798;2023-04-03T01:45:31;9.20;99.90
7216;DHT22;3649;48.798;9.798;2023-04-03T01:47:58;9.40;99.90
7216;DHT22;3649;48.798;9.798;2023-04-03T01:50:25;9.20;99.90
7216;DHT22;3649;48.798;9.798;2023-04-03T01:52:52;9.20;99.90
7216;DHT22;3649;48.798;9.798;2023-04-03T01:55:19;9.30;99.90
7216;DHT22;3649;48.798;9.798;2023-04-03T01:57:46;9.20;99.90
7216;DHT22;3649;48.798;9.798;2023-04-03T02:00:13;9.70;99.90
7216;DHT22;3649;48.798;9.798;2023-04-03T02:02:40;9.20;99.90
7216;DHT22;3649;48.798;9.798;2023-04-03T02:05:07;9.10;99.90
7216;DHT22;3649;48.798;9.798;2023-04-03T02:07:34;9.10;99.90
7216;DHT22;3649;48.798;9.798;2023-04-03T02:10:02;9.30;99.90
7216;DHT22;3649;48.798;9.798;2023-04-03T02:12:29;9.20;99.90
7216;DHT22;3649;48.798;9.798;2023-04-03T02:14:55;9.20;99.90
7216;DHT22;3649;48.798;9.798;2023-04-03T02:17:22;9.20;99.90
7216;DHT22;3649;48.798;9.798;2023-04-03T02:19:49;9.20;99.90
7216;DHT22;3649;48.798;9.798;2023-04-03T02:22:16;9.30;99.90
7216;DHT22;3649;48.798;9.798;2023-04-03T02:24:42;9.30;99.90
7216;DHT22;3649;48.798;9.798;2023-04-03T02:27:09;9.30;99.90
7216;DHT22;3649;48.798;9.798;2023-04-03T02:29:36;9.20;99.90
7216;DHT22;3649;48.798;9.798;2023-04-03T02:32:03;9.20;99.90
7216;DHT22;3649;48.798;9.798;2023-04-03T02:34:30;9.10;99.90
7216;DHT22;3649;48.798;9.798;2023-04-03T02:36:57;9.20;99.90
7216;DHT22;3649;48.798;9.798;2023-04-03T02:39:23;9.40;99.90
7216;DHT22;3649;48.798;9.798;2023-04-03T02:41:50;9.20;99.90
7216;DHT22;3649;48.798;9.798;2023-04-03T02:44:18;9.20;99.90
7216;DHT22;3649;48.798;9.798;2023-04-03T02:46:45;9.10;99.90
7216;DHT22;3649;48.798;9.798;2023-04-03T02:49:12;9.10;99.90
7216;DHT22;3649;48.798;9.798;2023-04-03T02:51:38;9.20;99.90
7216;DHT22;3649;48.798;9.798;2023-04-03T02:54:05;9.10;99.90
7216;DHT22;3649;48.798;9.798;2023-04-03T02:56:32;9.10;99.90
7216;DHT22;3649;48.798;9.798;2023-04-03T02:58:59;9.00;99.90
7216;DHT22;3649;48.798;9.798;2023-04-03T03:01:26;9.10;99.90
7216;DHT22;3649;48.798;9.798;2023-04-03T03:03:58;9.10;99.90
7216;DHT22;3649;48.798;9.798;2023-04-03T03:06:26;9.20;99.90
7216;DHT22;3649;48.798;9.798;2023-04-03T03:08:53;9.40;99.90
7216;DHT22;3649;48.798;9.798;2023-04-03T03:11:20;9.20;99.90
7216;DHT22;3649;48.798;9.798;2023-04-03T03:13:48;9.20;99.90
7216;DHT22;3649;48.798;9.798;2023-04-03T03:16:15;9.20;99.90
7216;DHT22;3649;48.798;9.798;2023-04-03T03:18:41;9.10;99.90
7216;DHT22;3649;48.798;9.798;2023-04-03T03:21:09;9.20;99.90
7216;DHT22;3649;48.798;9.798;2023-04-03T03:23:36;9.00;99.90
7216;DHT22;3649;48.798;9.798;2023-04-03T03:26:06;9.10;99.90
7216;DHT22;3649;48.798;9.798;2023-04-03T03:28:34;9.20;99.90
7216;DHT22;3649;48.798;9.798;2023-04-03T03:31:01;9.20;99.90
7216;DHT22;3649;48.798;9.798;2023-04-03T03:33:28;9.90;99.90
7216;DHT22;3649;48.798;9.798;2023-04-03T03:35:55;9.20;99.90
7216;DHT22;3649;48.798;9.798;2023-04-03T03:38:23;9.20;99.90
7216;DHT22;3649;48.798;9.798;2023-04-03T03:40:51;9.30;99.90
7216;DHT22;3649;48.798;9.798;2023-04-03T03:43:18;9.30;99.90
7216;DHT22;3649;48.798;9.798;2023-04-03T03:45:45;9.30;99.90
7216;DHT22;3649;48.798;9.798;2023-04-03T03:48:13;9.30;99.90
7216;DHT22;3649;48.798;9.798;2023-04-03T03:50:40;9.20;99.90
7216;DHT22;3649;48.798;9.798;2023-04-03T03:53:06;9.30;99.90
7216;DHT22;3649;48.798;9.798;2023-04-03T03:55:35;9.10;99.90
7216;DHT22;3649;48.798;9.798;2023-04-03T03:58:03;9.10;99.90
7216;DHT22;3649;48.798;9.798;2023-04-03T04:00:30;9.80;99.90
7216;DHT22;3649;48.798;9.798;2023-04-03T04:02:57;9.20;99.90
7216;DHT22;3649;48.798;9.798;2023-04-03T04:05:25;9.20;99.90
7216;DHT22;3649;48.798;9.798;2023-04-03T04:07:51;9.60;99.90
7216;DHT22;3649;48.798;9.798;2023-04-03T04:10:18;9.20;99.90
7216;DHT22;3649;48.798;9.798;2023-04-03T04:12:45;9.30;99.90
7216;DHT22;3649;48.798;9.798;2023-04-03T04:15:12;9.30;99.90
7216;DHT22;3649;48.798;9.798;2023-04-03T04:17:39;9.20;99.90
7216;DHT22;3649;48.798;9.798;2023-04-03T04:20:06;9.20;99.90
7216;DHT22;3649;48.798;9.798;2023-04-03T04:22:33;9.20;99.90
7216;DHT22;3649;48.798;9.798;2023-04-03T04:25:00;9.10;99.90
7216;DHT22;3649;48.798;9.798;2023-04-03T04:27:29;9.10;99.90
7216;DHT22;3649;48.798;9.798;2023-04-03T04:29:57;9.10;99.90
7216;DHT22;3649;48.798;9.798;2023-04-03T04:32:25;9.00;99.90
7216;DHT22;3649;48.798;9.798;2023-04-03T04:34:52;9.00;99.90
7216;DHT22;3649;48.798;9.798;2023-04-03T04:37:19;9.20;99.90
7216;DHT22;3649;48.798;9.798;2023-04-03T04:39:46;9.00;99.90
7216;DHT22;3649;48.798;9.798;2023-04-03T04:42:13;8.90;99.90
7216;DHT22;3649;48.798;9.798;2023-04-03T04:44:43;8.90;99.90
7216;DHT22;3649;48.798;9.798;2023-04-03T04:47:10;8.90;99.90
7216;DHT22;3649;48.798;9.798;2023-04-03T04:49:37;8.90;99.90
7216;DHT22;3649;48.798;9.798;2023-04-03T04:52:04;8.90;99.90
7216;DHT22;3649;48.798;9.798;2023-04-03T04:54:30;8.90;99.90
7216;DHT22;3649;48.798;9.798;2023-04-03T04:56:57;8.80;99.90
7216;DHT22;3649;48.798;9.798;2023-04-03T04:59:24;8.70;99.90
7216;DHT22;3649;48.798;9.798;2023-04-03T05:01:51;8.70;99.90
7216;DHT22;3649;48.798;9.798;2023-04-03T05:04:18;8.70;99.90
7216;DHT22;3649;48.798;9.798;2023-04-03T05:06:45;8.70;99.90
7216;DHT22;3649;48.798;9.798;2023-04-03T05:09:12;8.60;99.90
7216;DHT22;3649;48.798;9.798;2023-04-03T05:11:38;8.70;99.90
7216;DHT22;3649;48.798;9.798;2023-04-03T05:14:07;8.50;99.90
7216;DHT22;3649;48.798;9.798;2023-04-03T05:16:34;8.50;99.90
7216;DHT22;3649;48.798;9.798;2023-04-03T05:19:01;8.50;99.90
7216;DHT22;3649;48.798;9.798;2023-04-03T05:21:28;8.50;99.90
7216;DHT22;3649;48.798;9.798;2023-04-03T05:23:59;8.40;99.90
7216;DHT22;3649;48.798;9.798;2023-04-03T05:26:30;8.40;99.90
7216;DHT22;3649;48.798;9.798;2023-04-03T05:28:57;8.50;99.90
7216;DHT22;3649;48.798;9.798;2023-04-03T05:31:24;8.80;99.90
7216;DHT22;3649;48.798;9.798;2023-04-03T05:33:51;8.50;99.90
7216;DHT22;3649;48.798;9.798;2023-04-03T05:36:18;8.50;99.90
7216;DHT22;3649;48.798;9.798;2023-04-03T05:38:46;8.60;99.90
7216;DHT22;3649;48.798;9.798;2023-04-03T05:41:14;8.60;99.90
7216;DHT22;3649;48.798;9.798;2023-04-03T05:43:41;8.70;99.90
7216;DHT22;3649;48.798;9.798;2023-04-03T05:46:17;8.70;99.90
7216;DHT22;3649;48.798;9.798;2023-04-03T05:48:44;8.70;99.90
7216;DHT22;3649;48.798;9.798;2023-04-03T05:51:18;8.70;99.90
7216;DHT22;3649;48.798;9.798;2023-04-03T05:53:45;8.80;99.90
7216;DHT22;3649;48.798;9.798;2023-04-03T05:56:14;8.80;99.90
7216;DHT22;3649;48.798;9.798;2023-04-03T05:58:41;8.80;99.90
7216;DHT22;3649;48.798;9.798;2023-04-03T06:01:07;8.80;99.90
7216;DHT22;3649;48.798;9.798;2023-04-03T06:03:35;8.80;99.90
7216;DHT22;3649;48.798;9.798;2023-04-03T06:06:05;8.70;99.90
7216;DHT22;3649;48.798;9.798;2023-04-03T06:08:32;8.70;99.90
7216;DHT22;3649;48.798;9.798;2023-04-03T06:11:00;8.70;99.90
7216;DHT22;3649;48.798;9.798;2023-04-03T06:13:28;8.80;99.90
7216;DHT22;3649;48.798;9.798;2023-04-03T06:15:56;8.70;99.90
7216;DHT22;3649;48.798;9.798;2023-04-03T06:18:23;8.70;99.90
7216;DHT22;3649;48.798;9.798;2023-04-03T06:20:50;8.60;99.90
7216;DHT22;3649;48.798;9.798;2023-04-03T06:23:17;8.80;99.90
7216;DHT22;3649;48.798;9.798;2023-04-03T06:25:44;8.80;99.90
7216;DHT22;3649;48.798;9.798;2023-04-03T06:28:11;8.80;99.90
7216;DHT22;3649;48.798;9.798;2023-04-03T06:30:38;8.80;99.90
7216;DHT22;3649;48.798;9.798;2023-04-03T06:33:05;8.80;99.90
7216;DHT22;3649;48.798;9.798;2023-04-03T06:35:32;9.20;99.90
7216;DHT22;3649;48.798;9.798;2023-04-03T06:38:01;8.90;99.90
7216;DHT22;3649;48.798;9.798;2023-04-03T06:40:30;8.90;99.90
7216;DHT22;3649;48.798;9.798;2023-04-03T06:42:57;8.90;99.90
7216;DHT22;3649;48.798;9.798;2023-04-03T06:45:24;8.80;99.90
7216;DHT22;3649;48.798;9.798;2023-04-03T06:47:52;8.80;99.90
7216;DHT22;3649;48.798;9.798;2023-04-03T06:50:19;9.00;99.90
7216;DHT22;3649;48.798;9.798;2023-04-03T06:52:46;8.90;99.90
7216;DHT22;3649;48.798;9.798;2023-04-03T06:55:13;8.90;99.90
7216;DHT22;3649;48.798;9.798;2023-04-03T06:57:39;8.80;99.90
7216;DHT22;3649;48.798;9.798;2023-04-03T07:00:07;8.80;99.90
7216;DHT22;3649;48.798;9.798;2023-04-03T07:02:35;8.70;99.90
7216;DHT22;3649;48.798;9.798;2023-04-03T07:05:02;8.70;99.90
7216;DHT22;3649;48.798;9.798;2023-04-03T07:07:30;8.70;99.90
7216;DHT22;3649;48.798;9.798;2023-04-03T07:09:57;8.70;99.90
7216;DHT22;3649;48.798;9.798;2023-04-03T07:12:24;8.70;99.90
7216;DHT22;3649;48.798;9.798;2023-04-03T07:14:51;8.70;99.90
7216;DHT22;3649;48.798;9.798;2023-04-03T07:17:18;8.70;99.90
7216;DHT22;3649;48.798;9.798;2023-04-03T07:19:44;8.80;99.90
7216;DHT22;3649;48.798;9.798;2023-04-03T07:22:12;8.80;99.90
7216;DHT22;3649;48.798;9.798;2023-04-03T07:24:39;9.90;99.90
7216;DHT22;3649;48.798;9.798;2023-04-03T07:27:06;8.70;99.90
7216;DHT22;3649;48.798;9.798;2023-04-03T07:29:35;8.70;99.90
7216;DHT22;3649;48.798;9.798;2023-04-03T07:32:03;8.70;99.90
7216;DHT22;3649;48.798;9.798;2023-04-03T07:34:30;8.80;99.90
7216;DHT22;3649;48.798;9.798;2023-04-03T07:36:57;8.70;99.90
7216;DHT22;3649;48.798;9.798;2023-04-03T07:39:24;8.70;99.90
7216;DHT22;3649;48.798;9.798;2023-04-03T07:41:52;8.70;99.90
7216;DHT22;3649;48.798;9.798;2023-04-03T07:44:19;8.70;99.90
7216;DHT22;3649;48.798;9.798;2023-04-03T07:46:46;8.70;99.90
7216;DHT22;3649;48.798;9.798;2023-04-03T07:49:13;8.70;99.90
7216;DHT22;3649;48.798;9.798;2023-04-03T07:51:40;8.80;99.90
7216;DHT22;3649;48.798;9.798;2023-04-03T07:54:07;8.70;99.90
7216;DHT22;3649;48.798;9.798;2023-04-03T07:56:34;8.70;99.90
7216;DHT22;3649;48.798;9.798;2023-04-03T07:59:01;8.80;99.90
7216;DHT22;3649;48.798;9.798;2023-04-03T08:01:28;8.80;99.90
7216;DHT22;3649;48.798;9.798;2023-04-03T08:03:55;8.80;99.90
7216;DHT22;3649;48.798;9.798;2023-04-03T08:06:22;9.60;99.90
7216;DHT22;3649;48.798;9.798;2023-04-03T08:09:09;8.90;99.90
7216;DHT22;3649;48.798;9.798;2023-04-03T08:11:39;9.00;99.90
7216;DHT22;3649;48.798;9.798;2023-04-03T08:14:06;9.00;99.90
7216;DHT22;3649;48.798;9.798;2023-04-03T08:16:33;8.90;99.90
7216;DHT22;3649;48.798;9.798;2023-04-03T08:18:59;9.20;99.90
7216;DHT22;3649;48.798;9.798;2023-04-03T08:21:28;9.00;99.90
7216;DHT22;3649;48.798;9.798;2023-04-03T08:23:55;9.00;99.90
7216;DHT22;3649;48.798;9.798;2023-04-03T08:26:23;9.00;99.90
7216;DHT22;3649;48.798;9.798;2023-04-03T08:28:49;9.00;99.90
7216;DHT22;3649;48.798;9.798;2023-04-03T08:31:18;9.00;99.90
7216;DHT22;3649;48.798;9.798;2023-04-03T08:33:46;9.10;99.90
7216;DHT22;3649;48.798;9.798;2023-04-03T08:36:23;9.10;99.90
7216;DHT22;3649;48.798;9.798;2023-04-03T08:38:52;9.10;99.90
7216;DHT22;3649;48.798;9.798;2023-04-03T08:49:44;9.40;99.90
7216;DHT22;3649;48.798;9.798;2023-04-03T08:52:24;9.40;99.90
7216;DHT22;3649;48.798;9.798;2023-04-03T08:55:00;10.20;99.90
7216;DHT22;3649;48.798;9.798;2023-04-03T08:57:29;9.50;99.90
7216;DHT22;3649;48.798;9.798;2023-04-03T09:00:00;9.60;99.90
7216;DHT22;3649;48.798;9.798;2023-04-03T09:02:35;9.60;99.90
7216;DHT22;3649;48.798;9.798;2023-04-03T09:05:13;9.70;99.90
7216;DHT22;3649;48.798;9.798;2023-04-03T09:10:37;9.40;99.90
7216;DHT22;3649;48.798;9.798;2023-04-03T09:18:52;9.30;99.90
7216;DHT22;3649;48.798;9.798;2023-04-03T09:21:38;9.40;99.90
7216;DHT22;3649;48.798;9.798;2023-04-03T09:24:12;9.50;99.90
7216;DHT22;3649;48.798;9.798;2023-04-03T09:27:07;9.50;99.90
7216;DHT22;3649;48.798;9.798;2023-04-03T09:29:40;9.50;99.90
7216;DHT22;3649;48.798;9.798;2023-04-03T09:32:21;9.50;99.90
7216;DHT22;3649;48.798;9.798;2023-04-03T09:34:51;10.50;99.90
7216;DHT22;3649;48.798;9.798;2023-04-03T09:37:41;9.60;99.90
7216;DHT22;3649;48.798;9.798;2023-04-03T09:40:32;9.80;99.90
7216;DHT22;3649;48.798;9.798;2023-04-03T09:43:21;9.80;99.90
7216;DHT22;3649;48.798;9.798;2023-04-03T09:45:50;9.80;99.90
7216;DHT22;3649;48.798;9.798;2023-04-03T09:48:21;9.80;99.90
7216;DHT22;3649;48.798;9.798;2023-04-03T09:55:59;9.80;99.90
7216;DHT22;3649;48.798;9.798;2023-04-03T09:58:38;9.70;99.90
7216;DHT22;3649;48.798;9.798;2023-04-03T10:01:29;9.70;99.90
7216;DHT22;3649;48.798;9.798;2023-04-03T10:06:41;9.80;99.90
7216;DHT22;3649;48.798;9.798;2023-04-03T10:09:22;9.80;99.90
7216;DHT22;3649;48.798;9.798;2023-04-03T10:12:11;9.90;99.90
7216;DHT22;3649;48.798;9.798;2023-04-03T10:14:55;10.30;99.90
7216;DHT22;3649;48.798;9.798;2023-04-03T10:23:31;9.90;99.30
7216;DHT22;3649;48.798;9.798;2023-04-03T10:34:35;9.70;98.50
7216;DHT22;3649;48.798;9.798;2023-04-03T10:39:57;9.70;98.90
7216;DHT22;3649;48.798;9.798;2023-04-03T10:45:28;9.70;99.00
7216;DHT22;3649;48.798;9.798;2023-04-03T10:48:15;9.60;98.70
7216;DHT22;3649;48.798;9.798;2023-04-03T10:50:52;9.70;98.70
7216;DHT22;3649;48.798;9.798;2023-04-03T10:56:15;9.80;98.60
7216;DHT22;3649;48.798;9.798;2023-04-03T10:58:45;9.80;98.70
7216;DHT22;3649;48.798;9.798;2023-04-03T11:01:21;9.90;98.30
7216;DHT22;3649;48.798;9.798;2023-04-03T11:03:53;9.90;98.10
7216;DHT22;3649;48.798;9.798;2023-04-03T11:06:25;9.90;97.90
7216;DHT22;3649;48.798;9.798;2023-04-03T11:09:00;9.90;97.70
7216;DHT22;3649;48.798;9.798;2023-04-03T11:11:34;9.80;97.80
7216;DHT22;3649;48.798;9.798;2023-04-03T11:14:21;9.90;97.40
7216;DHT22;3649;48.798;9.798;2023-04-03T11:17:11;9.90;96.60
7216;DHT22;3649;48.798;9.798;2023-04-03T11:20:06;9.90;97.30
7216;DHT22;3649;48.798;9.798;2023-04-03T11:22:43;10.00;97.00
7216;DHT22;3649;48.798;9.798;2023-04-03T11:25:24;11.20;97.90
7216;DHT22;3649;48.798;9.798;2023-04-03T11:28:00;10.10;97.60
7216;DHT22;3649;48.798;9.798;2023-04-03T11:30:34;10.20;97.50
7216;DHT22;3649;48.798;9.798;2023-04-03T11:35:45;10.00;97.80
7216;DHT22;3649;48.798;9.798;2023-04-03T11:38:35;10.00;98.20
7216;DHT22;3649;48.798;9.798;2023-04-03T11:41:04;10.00;98.00
7216;DHT22;3649;48.798;9.798;2023-04-03T11:43:34;10.10;98.00
7216;DHT22;3649;48.798;9.798;2023-04-03T11:46:07;10.00;98.00
7216;DHT22;3649;48.798;9.798;2023-04-03T11:53:44;10.10;97.10
7216;DHT22;3649;48.798;9.798;2023-04-03T12:04:12;10.10;97.50
7216;DHT22;3649;48.798;9.798;2023-04-03T12:14:51;10.10;96.90
7216;DHT22;3649;48.798;9.798;2023-04-03T12:17:26;10.20;96.90
7216;DHT22;3649;48.798;9.798;2023-04-03T12:19:53;10.30;96.70
7216;DHT22;3649;48.798;9.798;2023-04-03T12:22:21;10.30;96.90
7216;DHT22;3649;48.798;9.798;2023-04-03T12:24:50;10.40;97.00
7216;DHT22;3649;48.798;9.798;2023-04-03T12:27:26;11.40;97.10
7216;DHT22;3649;48.798;9.798;2023-04-03T12:32:51;10.30;96.40
7216;DHT22;3649;48.798;9.798;2023-04-03T12:35:49;10.30;96.70
7216;DHT22;3649;48.798;9.798;2023-04-03T12:41:27;10.30;96.10
7216;DHT22;3649;48.798;9.798;2023-04-03T12:44:01;10.40;96.40
7216;DHT22;3649;48.798;9.798;2023-04-03T12:46:37;10.40;95.40
7216;DHT22;3649;48.798;9.798;2023-04-03T12:51:51;10.40;95.20
7216;DHT22;3649;48.798;9.798;2023-04-03T12:54:34;10.40;95.10
7216;DHT22;3649;48.798;9.798;2023-04-03T12:57:10;10.30;95.20
7216;DHT22;3649;48.798;9.798;2023-04-03T12:59:37;10.30;95.30
7216;DHT22;3649;48.798;9.798;2023-04-03T13:02:15;10.30;95.90
7216;DHT22;3649;48.798;9.798;2023-04-03T13:04:46;10.20;95.80
7216;DHT22;3649;48.798;9.798;2023-04-03T13:09:57;10.40;95.00
7216;DHT22;3649;48.798;9.798;2023-04-03T13:12:24;10.50;94.80
7216;DHT22;3649;48.798;9.798;2023-04-03T13:14:57;10.50;94.50
7216;DHT22;3649;48.798;9.798;2023-04-03T13:17:25;10.50;94.70
7216;DHT22;3649;48.798;9.798;2023-04-03T13:19:54;10.60;94.60
7216;DHT22;3649;48.798;9.798;2023-04-03T13:22:36;10.60;94.60
7216;DHT22;3649;48.798;9.798;2023-04-03T13:25:08;10.60;94.70
7216;DHT22;3649;48.798;9.798;2023-04-03T13:27:36;10.60;94.80
7216;DHT22;3649;48.798;9.798;2023-04-03T13:30:06;10.70;94.70
7216;DHT22;3649;48.798;9.798;2023-04-03T13:32:34;10.60;94.80
7216;DHT22;3649;48.798;9.798;2023-04-03T13:35:01;10.50;94.60
7216;DHT22;3649;48.798;9.798;2023-04-03T13:37:55;10.40;94.90
7216;DHT22;3649;48.798;9.798;2023-04-03T13:40:23;10.50;95.20
7216;DHT22;3649;48.798;9.798;2023-04-03T13:43:05;10.50;95.30
7216;DHT22;3649;48.798;9.798;2023-04-03T13:45:34;10.60;95.10
7216;DHT22;3649;48.798;9.798;2023-04-03T13:50:59;10.50;95.40
7216;DHT22;3649;48.798;9.798;2023-04-03T13:53:29;10.60;94.90
7216;DHT22;3649;48.798;9.798;2023-04-03T13:56:07;10.70;94.60
7216;DHT22;3649;48.798;9.798;2023-04-03T13:58:35;10.50;94.40
7216;DHT22;3649;48.798;9.798;2023-04-03T14:01:39;10.50;94.00
7216;DHT22;3649;48.798;9.798;2023-04-03T14:04:14;10.40;94.50
7216;DHT22;3649;48.798;9.798;2023-04-03T14:06:41;10.50;94.70
7216;DHT22;3649;48.798;9.798;2023-04-03T14:09:08;10.50;93.90
7216;DHT22;3649;48.798;9.798;2023-04-03T14:11:35;10.50;93.40
7216;DHT22;3649;48.798;9.798;2023-04-03T14:14:09;10.50;94.10
7216;DHT22;3649;48.798;9.798;2023-04-03T14:16:40;10.60;94.20
7216;DHT22;3649;48.798;9.798;2023-04-03T14:19:17;10.70;94.00
7216;DHT22;3649;48.798;9.798;2023-04-03T14:21:45;10.70;93.80
7216;DHT22;3649;48.798;9.798;2023-04-03T14:24:11;10.70;93.80
7216;DHT22;3649;48.798;9.798;2023-04-03T14:26:39;10.70;93.70
7216;DHT22;3649;48.798;9.798;2023-04-03T14:29:06;10.60;93.60
7216;DHT22;3649;48.798;9.798;2023-04-03T14:31:33;10.70;94.00
7216;DHT22;3649;48.798;9.798;2023-04-03T14:33:59;10.60;93.80
7216;DHT22;3649;48.798;9.798;2023-04-03T14:36:28;10.70;93.00
7216;DHT22;3649;48.798;9.798;2023-04-03T14:38:55;10.70;93.10
7216;DHT22;3649;48.798;9.798;2023-04-03T14:41:24;10.60;92.90
7216;DHT22;3649;48.798;9.798;2023-04-03T14:43:52;10.60;93.10
7216;DHT22;3649;48.798;9.798;2023-04-03T14:46:26;10.60;93.10
7216;DHT22;3649;48.798;9.798;2023-04-03T14:49:15;10.70;92.60
7216;DHT22;3649;48.798;9.798;2023-04-03T14:51:44;11.10;92.50
7216;DHT22;3649;48.798;9.798;2023-04-03T14:54:14;10.70;92.50
7216;DHT22;3649;48.798;9.798;2023-04-03T14:56:41;10.80;92.30
7216;DHT22;3649;48.798;9.798;2023-04-03T14:59:13;11.00;92.50
7216;DHT22;3649;48.798;9.798;2023-04-03T15:01:42;10.90;92.50
7216;DHT22;3649;48.798;9.798;2023-04-03T15:04:13;10.90;92.40
7216;DHT22;3649;48.798;9.798;2023-04-03T15:06:41;10.90;93.20
7216;DHT22;3649;48.798;9.798;2023-04-03T15:09:20;10.90;93.10
7216;DHT22;3649;48.798;9.798;2023-04-03T15:11:49;10.60;93.00
7216;DHT22;3649;48.798;9.798;2023-04-03T15:14:17;10.70;93.50
7216;DHT22;3649;48.798;9.798;2023-04-03T15:17:02;10.60;93.50
7216;DHT22;3649;48.798;9.798;2023-04-03T15:19:32;10.50;93.40
7216;DHT22;3649;48.798;9.798;2023-04-03T15:22:02;10.50;93.20
7216;DHT22;3649;48.798;9.798;2023-04-03T15:24:29;10.50;93.30
7216;DHT22;3649;48.798;9.798;2023-04-03T15:26:56;10.50;93.40
7216;DHT22;3649;48.798;9.798;2023-04-03T15:29:23;10.60;93.60
7216;DHT22;3649;48.798;9.798;2023-04-03T15:31:50;10.60;93.30
7216;DHT22;3649;48.798;9.798;2023-04-03T15:34:20;10.70;93.60
7216;DHT22;3649;48.798;9.798;2023-04-03T15:36:49;10.70;93.00
7216;DHT22;3649;48.798;9.798;2023-04-03T15:39:16;10.80;92.90
7216;DHT22;3649;48.798;9.798;2023-04-03T15:41:44;10.80;92.90
7216;DHT22;3649;48.798;9.798;2023-04-03T15:44:12;10.80;92.80
7216;DHT22;3649;48.798;9.798;2023-04-03T15:46:39;10.90;92.70
7216;DHT22;3649;48.798;9.798;2023-04-03T15:49:08;10.70;92.80
7216;DHT22;3649;48.798;9.798;2023-04-03T15:51:35;10.70;92.80
7216;DHT22;3649;48.798;9.798;2023-04-03T15:54:02;10.70;92.60
7216;DHT22;3649;48.798;9.798;2023-04-03T15:56:29;10.70;92.70
7216;DHT22;3649;48.798;9.798;2023-04-03T15:58:56;10.70;92.80
7216;DHT22;3649;48.798;9.798;2023-04-03T16:01:23;10.70;92.40
7216;DHT22;3649;48.798;9.798;2023-04-03T16:03:50;10.50;92.50
7216;DHT22;3649;48.798;9.798;2023-04-03T16:06:18;10.50;93.20
7216;DHT22;3649;48.798;9.798;2023-04-03T16:08:46;10.50;92.70
7216;DHT22;3649;48.798;9.798;2023-04-03T16:11:14;10.60;92.80
7216;DHT22;3649;48.798;9.798;2023-04-03T16:13:41;10.70;92.00
7216;DHT22;3649;48.798;9.798;2023-04-03T16:16:09;10.70;92.30
7216;DHT22;3649;48.798;9.798;2023-04-03T16:18:36;10.70;92.70
7216;DHT22;3649;48.798;9.798;2023-04-03T16:21:03;10.60;92.00
7216;DHT22;3649;48.798;9.798;2023-04-03T16:23:32;10.50;92.40
7216;DHT22;3649;48.798;9.798;2023-04-03T16:25:59;10.50;92.50
7216;DHT22;3649;48.798;9.798;2023-04-03T16:28:25;11.20;92.80
7216;DHT22;3649;48.798;9.798;2023-04-03T16:30:52;10.50;92.80
7216;DHT22;3649;48.798;9.798;2023-04-03T16:33:19;10.50;93.20
7216;DHT22;3649;48.798;9.798;2023-04-03T16:35:49;10.40;93.00
7216;DHT22;3649;48.798;9.798;2023-04-03T16:38:16;10.50;93.20
7216;DHT22;3649;48.798;9.798;2023-04-03T16:40:45;10.60;93.20
7216;DHT22;3649;48.798;9.798;2023-04-03T16:43:12;10.50;93.00
7216;DHT22;3649;48.798;9.798;2023-04-03T16:45:39;10.50;93.10
7216;DHT22;3649;48.798;9.798;2023-04-03T16:48:06;10.50;93.30
7216;DHT22;3649;48.798;9.798;2023-04-03T16:50:33;10.60;93.20
7216;DHT22;3649;48.798;9.798;2023-04-03T16:53:01;10.50;93.20
7216;DHT22;3649;48.798;9.798;2023-04-03T16:55:29;10.50;93.50
7216;DHT22;3649;48.798;9.798;2023-04-03T16:57:56;10.50;93.40
7216;DHT22;3649;48.798;9.798;2023-04-03T17:00:23;10.50;93.60
7216;DHT22;3649;48.798;9.798;2023-04-03T17:02:50;10.50;93.30
7216;DHT22;3649;48.798;9.798;2023-04-03T17:05:17;10.50;93.30
7216;DHT22;3649;48.798;9.798;2023-04-03T17:07:44;10.50;93.60
7216;DHT22;3649;48.798;9.798;2023-04-03T17:10:11;10.50;93.20
7216;DHT22;3649;48.798;9.798;2023-04-03T17:12:42;10.50;93.60
7216;DHT22;3649;48.798;9.798;2023-04-03T17:15:09;10.50;93.60
7216;DHT22;3649;48.798;9.798;2023-04-03T17:17:36;10.60;93.60
7216;DHT22;3649;48.798;9.798;2023-04-03T17:20:03;10.60;93.60
7216;DHT22;3649;48.798;9.798;2023-04-03T17:22:30;10.50;93.30
7216;DHT22;3649;48.798;9.798;2023-04-03T17:24:59;10.50;93.60
7216;DHT22;3649;48.798;9.798;2023-04-03T17:27:26;10.50;93.70
7216;DHT22;3649;48.798;9.798;2023-04-03T17:29:53;10.40;93.70
7216;DHT22;3649;48.798;9.798;2023-04-03T17:32:20;10.50;93.90
7216;DHT22;3649;48.798;9.798;2023-04-03T17:34:47;10.40;93.90
7216;DHT22;3649;48.798;9.798;2023-04-03T17:37:14;10.40;94.00
7216;DHT22;3649;48.798;9.798;2023-04-03T17:39:41;10.40;93.60
7216;DHT22;3649;48.798;9.798;2023-04-03T17:42:08;10.60;93.80
7216;DHT22;3649;48.798;9.798;2023-04-03T17:44:35;10.30;93.70
7216;DHT22;3649;48.798;9.798;2023-04-03T17:47:02;10.30;93.70
7216;DHT22;3649;48.798;9.798;2023-04-03T17:49:28;10.30;93.70
7216;DHT22;3649;48.798;9.798;2023-04-03T17:51:55;10.30;93.80
7216;DHT22;3649;48.798;9.798;2023-04-03T17:54:22;10.30;93.80
7216;DHT22;3649;48.798;9.798;2023-04-03T17:56:49;10.40;93.70
7216;DHT22;3649;48.798;9.798;2023-04-03T17:59:16;10.30;93.80
7216;DHT22;3649;48.798;9.798;2023-04-03T18:01:44;10.30;93.80
7216;DHT22;3649;48.798;9.798;2023-04-03T18:04:13;10.20;94.00